sensor_id;sensor_type;location;lat;lon;timestamp;P1;durP1;ratioP1;P2;durP2;ratioP2
23206;SDS011;11773;52.570;13.052;2022-08-19T00:00:29;1.70;;;1.60;;
23206;SDS011;11773;52.570;13.052;2022-08-19T00:02:59;1.87;;;1.77;;
23206;SDS011;11773;52.570;13.052;2022-08-19T00:05:28;1.80;;;1.70;;
23206;SDS011;11773;52.570;13.052;2022-08-19T00:07:58;1.90;;;1.80;;
23206;SDS011;11773;52.570;13.052;2022-08-19T00:10:28;1.60;;;1.50;;
23206;SDS011;11773;52.570;13.052;2022-08-19T00:12:58;1.70;;;1.60;;
23206;SDS011;11773;52.570;13.052;2022-08-19T00:15:27;1.70;;;1.60;;
23206;SDS011;11773;52.570;13.052;2022-08-19T00:17:57;1.90;;;1.80;;
23206;SDS011;11773;52.570;13.052;2022-08-19T00:20:27;1.70;;;1.60;;
23206;SDS011;11773;52.570;13.052;2022-08-19T00:22:56;2.00;;;1.90;;
23206;SDS011;11773;52.570;13.052;2022-08-19T00:25:26;2.10;;;1.90;;
23206;SDS011;11773;52.570;13.052;2022-08-19T00:27:56;1.50;;;1.40;;
23206;SDS011;11773;52.570;13.052;2022-08-19T00:30:27;1.77;;;1.67;;
23206;SDS011;11773;52.570;13.052;2022-08-19T00:32:57;1.53;;;1.43;;
23206;SDS011;11773;52.570;13.052;2022-08-19T00:35:27;1.70;;;1.60;;
23206;SDS011;11773;52.570;13.052;2022-08-19T00:37:57;1.43;;;1.33;;
23206;SDS011;11773;52.570;13.052;2022-08-19T00:40:26;1.90;;;1.80;;
23206;SDS011;11773;52.570;13.052;2022-08-19T00:42:57;1.80;;;1.70;;
23206;SDS011;11773;52.570;13.052;2022-08-19T00:45:27;1.90;;;1.80;;
23206;SDS011;11773;52.570;13.052;2022-08-19T00:48:00;1.60;;;1.50;;
23206;SDS011;11773;52.570;13.052;2022-08-19T00:50:35;1.50;;;1.40;;
23206;SDS011;11773;52.570;13.052;2022-08-19T00:53:12;1.70;;;1.60;;
23206;SDS011;11773;52.570;13.052;2022-08-19T00:55:47;1.80;;;1.70;;
23206;SDS011;11773;52.570;13.052;2022-08-19T00:58:20;1.90;;;1.80;;
23206;SDS011;11773;52.570;13.052;2022-08-19T01:00:54;1.70;;;1.60;;
23206;SDS011;11773;52.570;13.052;2022-08-19T01:03:24;1.90;;;1.80;;
23206;SDS011;11773;52.570;13.052;2022-08-19T01:05:54;1.90;;;1.80;;
23206;SDS011;11773;52.570;13.052;2022-08-19T01:08:24;1.50;;;1.40;;
23206;SDS011;11773;52.570;13.052;2022-08-19T01:10:56;1.77;;;1.67;;
23206;SDS011;11773;52.570;13.052;2022-08-19T01:13:29;2.10;;;1.90;;
23206;SDS011;11773;52.570;13.052;2022-08-19T01:16:04;1.83;;;1.73;;
23206;SDS011;11773;52.570;13.052;2022-08-19T01:18:38;1.50;;;1.40;;
23206;SDS011;11773;52.570;13.052;2022-08-19T01:21:18;2.07;;;1.97;;
23206;SDS011;11773;52.570;13.052;2022-08-19T01:23:56;1.77;;;1.67;;
23206;SDS011;11773;52.570;13.052;2022-08-19T01:26:26;1.80;;;1.70;;
23206;SDS011;11773;52.570;13.052;2022-08-19T01:28:58;2.10;;;2.00;;
23206;SDS011;11773;52.570;13.052;2022-08-19T01:31:29;2.00;;;1.90;;
23206;SDS011;11773;52.570;13.052;2022-08-19T01:34:00;1.83;;;1.73;;
23206;SDS011;11773;52.570;13.052;2022-08-19T01:36:33;1.90;;;1.80;;
23206;SDS011;11773;52.570;13.052;2022-08-19T01:39:06;1.50;;;1.40;;
23206;SDS011;11773;52.570;13.052;2022-08-19T01:41:39;1.77;;;1.67;;
23206;SDS011;11773;52.570;13.052;2022-08-19T01:44:09;1.90;;;1.80;;
23206;SDS011;11773;52.570;13.052;2022-08-19T01:46:42;2.07;;;1.97;;
23206;SDS011;11773;52.570;13.052;2022-08-19T01:49:15;2.57;;;2.00;;
23206;SDS011;11773;52.570;13.052;2022-08-19T01:51:48;1.93;;;1.83;;
23206;SDS011;11773;52.570;13.052;2022-08-19T01:54:19;1.80;;;1.70;;
23206;SDS011;11773;52.570;13.052;2022-08-19T01:56:55;1.70;;;1.60;;
23206;SDS011;11773;52.570;13.052;2022-08-19T01:59:27;1.83;;;1.73;;
23206;SDS011;11773;52.570;13.052;2022-08-19T02:02:18;2.00;;;1.90;;
23206;SDS011;11773;52.570;13.052;2022-08-19T02:04:48;1.70;;;1.60;;
23206;SDS011;11773;52.570;13.052;2022-08-19T02:07:23;1.90;;;1.70;;
23206;SDS011;11773;52.570;13.052;2022-08-19T02:09:49;1.80;;;1.70;;
23206;SDS011;11773;52.570;13.052;2022-08-19T02:12:18;1.67;;;1.57;;
23206;SDS011;11773;52.570;13.052;2022-08-19T02:14:48;1.70;;;1.60;;
23206;SDS011;11773;52.570;13.052;2022-08-19T02:17:17;1.70;;;1.60;;
23206;SDS011;11773;52.570;13.052;2022-08-19T02:19:47;1.60;;;1.50;;
23206;SDS011;11773;52.570;13.052;2022-08-19T02:22:17;1.50;;;1.37;;
23206;SDS011;11773;52.570;13.052;2022-08-19T02:24:46;1.63;;;1.53;;
23206;SDS011;11773;52.570;13.052;2022-08-19T02:27:16;1.47;;;1.37;;
23206;SDS011;11773;52.570;13.052;2022-08-19T02:29:47;1.10;;;1.07;;
23206;SDS011;11773;52.570;13.052;2022-08-19T02:32:18;1.40;;;1.27;;
23206;SDS011;11773;52.570;13.052;2022-08-19T02:34:48;1.60;;;1.50;;
23206;SDS011;11773;52.570;13.052;2022-08-19T02:37:18;1.80;;;1.70;;
23206;SDS011;11773;52.570;13.052;2022-08-19T02:40:05;1.10;;;1.10;;
23206;SDS011;11773;52.570;13.052;2022-08-19T02:42:37;1.40;;;1.40;;
23206;SDS011;11773;52.570;13.052;2022-08-19T02:45:07;1.30;;;1.20;;
23206;SDS011;11773;52.570;13.052;2022-08-19T02:47:37;1.70;;;1.60;;
23206;SDS011;11773;52.570;13.052;2022-08-19T02:50:08;2.00;;;1.90;;
23206;SDS011;11773;52.570;13.052;2022-08-19T02:52:37;2.00;;;1.90;;
23206;SDS011;11773;52.570;13.052;2022-08-19T02:55:07;2.37;;;2.17;;
23206;SDS011;11773;52.570;13.052;2022-08-19T02:57:37;2.00;;;1.90;;
23206;SDS011;11773;52.570;13.052;2022-08-19T03:00:09;2.67;;;2.47;;
23206;SDS011;11773;52.570;13.052;2022-08-19T03:02:39;2.90;;;2.70;;
23206;SDS011;11773;52.570;13.052;2022-08-19T03:05:10;2.80;;;2.60;;
23206;SDS011;11773;52.570;13.052;2022-08-19T03:07:39;2.70;;;2.50;;
23206;SDS011;11773;52.570;13.052;2022-08-19T03:10:09;2.30;;;2.10;;
23206;SDS011;11773;52.570;13.052;2022-08-19T03:12:39;2.93;;;2.73;;
23206;SDS011;11773;52.570;13.052;2022-08-19T03:15:08;2.90;;;2.70;;
23206;SDS011;11773;52.570;13.052;2022-08-19T03:17:38;2.70;;;2.50;;
23206;SDS011;11773;52.570;13.052;2022-08-19T03:20:07;3.02;;;2.72;;
23206;SDS011;11773;52.570;13.052;2022-08-19T03:22:38;2.20;;;2.10;;
23206;SDS011;11773;52.570;13.052;2022-08-19T03:25:07;2.23;;;2.13;;
23206;SDS011;11773;52.570;13.052;2022-08-19T03:27:38;1.83;;;1.73;;
23206;SDS011;11773;52.570;13.052;2022-08-19T03:30:09;2.13;;;1.97;;
23206;SDS011;11773;52.570;13.052;2022-08-19T03:32:42;2.03;;;1.93;;
23206;SDS011;11773;52.570;13.052;2022-08-19T03:35:11;2.23;;;2.03;;
23206;SDS011;11773;52.570;13.052;2022-08-19T03:37:41;2.10;;;2.00;;
23206;SDS011;11773;52.570;13.052;2022-08-19T03:40:10;2.40;;;2.20;;
23206;SDS011;11773;52.570;13.052;2022-08-19T03:42:41;2.67;;;2.47;;
23206;SDS011;11773;52.570;13.052;2022-08-19T03:45:12;2.70;;;2.50;;
23206;SDS011;11773;52.570;13.052;2022-08-19T03:47:42;2.50;;;2.30;;
23206;SDS011;11773;52.570;13.052;2022-08-19T03:50:12;2.83;;;2.63;;
23206;SDS011;11773;52.570;13.052;2022-08-19T03:52:41;2.20;;;2.10;;
23206;SDS011;11773;52.570;13.052;2022-08-19T03:55:13;2.20;;;2.10;;
23206;SDS011;11773;52.570;13.052;2022-08-19T03:57:42;2.00;;;1.90;;
23206;SDS011;11773;52.570;13.052;2022-08-19T04:00:14;2.17;;;2.07;;
23206;SDS011;11773;52.570;13.052;2022-08-19T04:02:44;2.63;;;2.43;;
23206;SDS011;11773;52.570;13.052;2022-08-19T04:05:16;2.50;;;2.30;;
23206;SDS011;11773;52.570;13.052;2022-08-19T04:07:47;1.80;;;1.70;;
23206;SDS011;11773;52.570;13.052;2022-08-19T04:10:16;2.30;;;2.20;;
23206;SDS011;11773;52.570;13.052;2022-08-19T04:12:46;2.13;;;2.03;;
23206;SDS011;11773;52.570;13.052;2022-08-19T04:15:17;2.50;;;2.30;;
23206;SDS011;11773;52.570;13.052;2022-08-19T04:17:47;1.93;;;1.83;;
23206;SDS011;11773;52.570;13.052;2022-08-19T04:20:17;2.13;;;1.93;;
23206;SDS011;11773;52.570;13.052;2022-08-19T04:22:46;2.10;;;2.00;;
23206;SDS011;11773;52.570;13.052;2022-08-19T04:25:16;2.73;;;2.13;;
23206;SDS011;11773;52.570;13.052;2022-08-19T04:27:45;1.80;;;1.70;;
23206;SDS011;11773;52.570;13.052;2022-08-19T04:30:15;1.80;;;1.70;;
23206;SDS011;11773;52.570;13.052;2022-08-19T04:32:46;2.33;;;2.23;;
23206;SDS011;11773;52.570;13.052;2022-08-19T04:35:17;1.87;;;1.77;;
23206;SDS011;11773;52.570;13.052;2022-08-19T04:37:48;2.40;;;2.20;;
23206;SDS011;11773;52.570;13.052;2022-08-19T04:40:17;2.10;;;2.00;;
23206;SDS011;11773;52.570;13.052;2022-08-19T04:43:05;2.73;;;2.53;;
23206;SDS011;11773;52.570;13.052;2022-08-19T04:45:35;2.63;;;2.43;;
23206;SDS011;11773;52.570;13.052;2022-08-19T04:48:07;2.20;;;2.10;;
23206;SDS011;11773;52.570;13.052;2022-08-19T04:50:39;2.20;;;2.10;;
23206;SDS011;11773;52.570;13.052;2022-08-19T04:53:10;2.00;;;1.90;;
23206;SDS011;11773;52.570;13.052;2022-08-19T04:55:40;1.83;;;1.73;;
23206;SDS011;11773;52.570;13.052;2022-08-19T04:58:11;3.30;;;3.03;;
23206;SDS011;11773;52.570;13.052;2022-08-19T05:00:41;2.53;;;2.33;;
23206;SDS011;11773;52.570;13.052;2022-08-19T05:03:11;2.27;;;2.13;;
23206;SDS011;11773;52.570;13.052;2022-08-19T05:05:43;2.83;;;2.63;;
23206;SDS011;11773;52.570;13.052;2022-08-19T05:08:17;3.27;;;3.00;;
23206;SDS011;11773;52.570;13.052;2022-08-19T05:10:51;2.43;;;2.33;;
23206;SDS011;11773;52.570;13.052;2022-08-19T05:13:20;3.13;;;2.90;;
23206;SDS011;11773;52.570;13.052;2022-08-19T05:15:54;2.90;;;2.70;;
23206;SDS011;11773;52.570;13.052;2022-08-19T05:18:25;2.70;;;2.50;;
23206;SDS011;11773;52.570;13.052;2022-08-19T05:21:13;2.47;;;2.27;;
23206;SDS011;11773;52.570;13.052;2022-08-19T05:24:04;2.60;;;2.40;;
23206;SDS011;11773;52.570;13.052;2022-08-19T05:26:38;2.47;;;2.30;;
23206;SDS011;11773;52.570;13.052;2022-08-19T05:29:18;3.03;;;2.83;;
23206;SDS011;11773;52.570;13.052;2022-08-19T05:31:48;2.60;;;2.40;;
23206;SDS011;11773;52.570;13.052;2022-08-19T05:34:19;2.97;;;2.77;;
23206;SDS011;11773;52.570;13.052;2022-08-19T05:37:00;2.50;;;2.30;;
23206;SDS011;11773;52.570;13.052;2022-08-19T05:39:29;3.90;;;3.60;;
23206;SDS011;11773;52.570;13.052;2022-08-19T05:42:05;3.20;;;3.00;;
23206;SDS011;11773;52.570;13.052;2022-08-19T05:44:39;3.10;;;2.90;;
23206;SDS011;11773;52.570;13.052;2022-08-19T05:47:16;2.80;;;2.60;;
23206;SDS011;11773;52.570;13.052;2022-08-19T05:49:50;2.80;;;2.60;;
23206;SDS011;11773;52.570;13.052;2022-08-19T05:52:19;3.30;;;3.10;;
23206;SDS011;11773;52.570;13.052;2022-08-19T05:54:50;2.70;;;2.50;;
23206;SDS011;11773;52.570;13.052;2022-08-19T05:57:23;2.90;;;2.70;;
23206;SDS011;11773;52.570;13.052;2022-08-19T05:59:54;2.70;;;2.50;;
23206;SDS011;11773;52.570;13.052;2022-08-19T06:02:26;3.30;;;3.00;;
23206;SDS011;11773;52.570;13.052;2022-08-19T06:05:00;2.77;;;2.57;;
23206;SDS011;11773;52.570;13.052;2022-08-19T06:07:39;2.60;;;2.40;;
23206;SDS011;11773;52.570;13.052;2022-08-19T06:10:06;2.93;;;2.73;;
23206;SDS011;11773;52.570;13.052;2022-08-19T06:12:38;2.60;;;2.40;;
23206;SDS011;11773;52.570;13.052;2022-08-19T06:15:09;2.30;;;2.10;;
23206;SDS011;11773;52.570;13.052;2022-08-19T06:17:41;2.63;;;2.43;;
23206;SDS011;11773;52.570;13.052;2022-08-19T06:20:14;2.62;;;2.42;;
23206;SDS011;11773;52.570;13.052;2022-08-19T06:22:47;2.40;;;2.30;;
23206;SDS011;11773;52.570;13.052;2022-08-19T06:25:18;2.57;;;2.37;;
23206;SDS011;11773;52.570;13.052;2022-08-19T06:27:47;2.63;;;2.43;;
23206;SDS011;11773;52.570;13.052;2022-08-19T06:30:19;2.97;;;2.77;;
23206;SDS011;11773;52.570;13.052;2022-08-19T06:32:48;2.87;;;2.67;;
23206;SDS011;11773;52.570;13.052;2022-08-19T06:35:19;2.90;;;2.70;;
23206;SDS011;11773;52.570;13.052;2022-08-19T06:37:48;3.43;;;3.20;;
23206;SDS011;11773;52.570;13.052;2022-08-19T06:40:19;3.30;;;3.10;;
23206;SDS011;11773;52.570;13.052;2022-08-19T06:42:49;2.83;;;2.63;;
23206;SDS011;11773;52.570;13.052;2022-08-19T06:45:22;3.43;;;3.20;;
23206;SDS011;11773;52.570;13.052;2022-08-19T06:47:54;3.43;;;3.10;;
23206;SDS011;11773;52.570;13.052;2022-08-19T06:50:27;3.00;;;2.80;;
23206;SDS011;11773;52.570;13.052;2022-08-19T06:52:56;2.70;;;2.50;;
23206;SDS011;11773;52.570;13.052;2022-08-19T06:55:28;3.03;;;2.80;;
23206;SDS011;11773;52.570;13.052;2022-08-19T06:58:03;3.10;;;2.90;;
23206;SDS011;11773;52.570;13.052;2022-08-19T07:00:33;2.80;;;2.60;;
23206;SDS011;11773;52.570;13.052;2022-08-19T07:03:04;2.90;;;2.70;;
23206;SDS011;11773;52.570;13.052;2022-08-19T07:05:43;2.90;;;2.70;;
23206;SDS011;11773;52.570;13.052;2022-08-19T07:08:11;2.70;;;2.50;;
23206;SDS011;11773;52.570;13.052;2022-08-19T07:10:45;2.60;;;2.40;;
23206;SDS011;11773;52.570;13.052;2022-08-19T07:13:16;2.70;;;2.50;;
23206;SDS011;11773;52.570;13.052;2022-08-19T07:15:46;2.60;;;2.40;;
23206;SDS011;11773;52.570;13.052;2022-08-19T07:18:18;3.30;;;3.10;;
23206;SDS011;11773;52.570;13.052;2022-08-19T07:20:48;3.20;;;3.00;;
23206;SDS011;11773;52.570;13.052;2022-08-19T07:23:18;3.13;;;2.93;;
23206;SDS011;11773;52.570;13.052;2022-08-19T07:25:49;3.00;;;2.80;;
23206;SDS011;11773;52.570;13.052;2022-08-19T07:28:19;2.70;;;2.50;;
23206;SDS011;11773;52.570;13.052;2022-08-19T07:30:51;3.13;;;2.83;;
23206;SDS011;11773;52.570;13.052;2022-08-19T07:33:21;2.80;;;2.60;;
23206;SDS011;11773;52.570;13.052;2022-08-19T07:35:52;3.40;;;3.10;;
23206;SDS011;11773;52.570;13.052;2022-08-19T07:38:22;3.20;;;3.00;;
23206;SDS011;11773;52.570;13.052;2022-08-19T07:40:52;3.30;;;3.10;;
23206;SDS011;11773;52.570;13.052;2022-08-19T07:43:22;3.10;;;2.90;;
23206;SDS011;11773;52.570;13.052;2022-08-19T07:45:55;3.10;;;2.90;;
23206;SDS011;11773;52.570;13.052;2022-08-19T07:48:25;2.87;;;2.67;;
23206;SDS011;11773;52.570;13.052;2022-08-19T07:50:57;3.23;;;2.90;;
23206;SDS011;11773;52.570;13.052;2022-08-19T07:53:30;2.90;;;2.70;;
23206;SDS011;11773;52.570;13.052;2022-08-19T07:56:02;3.17;;;2.97;;
23206;SDS011;11773;52.570;13.052;2022-08-19T07:58:34;3.40;;;3.10;;
23206;SDS011;11773;52.570;13.052;2022-08-19T08:01:07;3.20;;;2.90;;
23206;SDS011;11773;52.570;13.052;2022-08-19T08:03:40;3.03;;;2.73;;
23206;SDS011;11773;52.570;13.052;2022-08-19T08:06:12;3.07;;;2.77;;
23206;SDS011;11773;52.570;13.052;2022-08-19T08:09:01;3.23;;;3.03;;
23206;SDS011;11773;52.570;13.052;2022-08-19T08:11:38;2.90;;;2.70;;
23206;SDS011;11773;52.570;13.052;2022-08-19T08:14:15;2.07;;;1.97;;
23206;SDS011;11773;52.570;13.052;2022-08-19T08:16:50;2.87;;;2.67;;
23206;SDS011;11773;52.570;13.052;2022-08-19T08:19:21;2.70;;;2.50;;
23206;SDS011;11773;52.570;13.052;2022-08-19T08:21:53;2.77;;;2.57;;
23206;SDS011;11773;52.570;13.052;2022-08-19T08:24:28;3.30;;;3.00;;
23206;SDS011;11773;52.570;13.052;2022-08-19T08:26:59;2.97;;;2.77;;
23206;SDS011;11773;52.570;13.052;2022-08-19T08:29:32;3.33;;;3.03;;
23206;SDS011;11773;52.570;13.052;2022-08-19T08:32:01;2.80;;;2.60;;
23206;SDS011;11773;52.570;13.052;2022-08-19T08:34:33;2.30;;;2.20;;
23206;SDS011;11773;52.570;13.052;2022-08-19T08:37:03;2.30;;;2.10;;
23206;SDS011;11773;52.570;13.052;2022-08-19T08:39:33;2.40;;;2.30;;
23206;SDS011;11773;52.570;13.052;2022-08-19T08:42:11;2.20;;;2.10;;
23206;SDS011;11773;52.570;13.052;2022-08-19T08:45:10;2.30;;;2.20;;
23206;SDS011;11773;52.570;13.052;2022-08-19T08:47:32;2.47;;;2.30;;
23206;SDS011;11773;52.570;13.052;2022-08-19T08:52:56;2.60;;;2.40;;
23206;SDS011;11773;52.570;13.052;2022-08-19T08:55:27;2.37;;;2.20;;
23206;SDS011;11773;52.570;13.052;2022-08-19T08:58:09;2.90;;;2.70;;
23206;SDS011;11773;52.570;13.052;2022-08-19T09:00:45;2.63;;;2.43;;
23206;SDS011;11773;52.570;13.052;2022-08-19T09:03:18;2.60;;;2.40;;
23206;SDS011;11773;52.570;13.052;2022-08-19T09:06:07;2.10;;;2.00;;
23206;SDS011;11773;52.570;13.052;2022-08-19T09:08:45;2.83;;;2.63;;
23206;SDS011;11773;52.570;13.052;2022-08-19T09:14:46;2.27;;;2.17;;
23206;SDS011;11773;52.570;13.052;2022-08-19T09:17:28;4.30;;;4.00;;
23206;SDS011;11773;52.570;13.052;2022-08-19T09:22:45;3.27;;;2.97;;
23206;SDS011;11773;52.570;13.052;2022-08-19T09:25:18;2.90;;;2.70;;
23206;SDS011;11773;52.570;13.052;2022-08-19T09:27:54;3.00;;;2.80;;
23206;SDS011;11773;52.570;13.052;2022-08-19T09:30:27;2.97;;;2.77;;
23206;SDS011;11773;52.570;13.052;2022-08-19T09:33:00;3.00;;;2.80;;
23206;SDS011;11773;52.570;13.052;2022-08-19T09:35:30;3.03;;;2.83;;
23206;SDS011;11773;52.570;13.052;2022-08-19T09:38:03;3.13;;;2.93;;
23206;SDS011;11773;52.570;13.052;2022-08-19T09:40:35;2.40;;;2.30;;
23206;SDS011;11773;52.570;13.052;2022-08-19T09:43:07;2.27;;;2.17;;
23206;SDS011;11773;52.570;13.052;2022-08-19T09:45:39;2.80;;;2.60;;
23206;SDS011;11773;52.570;13.052;2022-08-19T09:48:08;2.87;;;2.67;;
23206;SDS011;11773;52.570;13.052;2022-08-19T09:50:40;3.27;;;2.97;;
23206;SDS011;11773;52.570;13.052;2022-08-19T09:53:11;3.20;;;3.00;;
23206;SDS011;11773;52.570;13.052;2022-08-19T09:55:43;3.00;;;2.80;;
23206;SDS011;11773;52.570;13.052;2022-08-19T09:58:14;3.00;;;2.80;;
23206;SDS011;11773;52.570;13.052;2022-08-19T10:00:46;3.17;;;2.97;;
23206;SDS011;11773;52.570;13.052;2022-08-19T10:03:17;2.53;;;2.33;;
23206;SDS011;11773;52.570;13.052;2022-08-19T10:05:48;2.87;;;2.67;;
23206;SDS011;11773;52.570;13.052;2022-08-19T10:08:28;2.80;;;2.60;;
23206;SDS011;11773;52.570;13.052;2022-08-19T10:10:57;2.70;;;2.50;;
23206;SDS011;11773;52.570;13.052;2022-08-19T10:13:30;2.90;;;2.70;;
23206;SDS011;11773;52.570;13.052;2022-08-19T10:16:07;2.80;;;2.60;;
23206;SDS011;11773;52.570;13.052;2022-08-19T10:18:41;3.23;;;3.03;;
23206;SDS011;11773;52.570;13.052;2022-08-19T10:21:14;2.80;;;2.60;;
23206;SDS011;11773;52.570;13.052;2022-08-19T10:23:52;2.70;;;2.50;;
23206;SDS011;11773;52.570;13.052;2022-08-19T10:26:28;2.97;;;2.77;;
23206;SDS011;11773;52.570;13.052;2022-08-19T10:28:59;2.73;;;2.53;;
23206;SDS011;11773;52.570;13.052;2022-08-19T10:31:31;3.37;;;3.07;;
23206;SDS011;11773;52.570;13.052;2022-08-19T10:34:03;2.90;;;2.70;;
23206;SDS011;11773;52.570;13.052;2022-08-19T10:36:35;2.83;;;2.63;;
23206;SDS011;11773;52.570;13.052;2022-08-19T10:39:08;2.90;;;2.70;;
23206;SDS011;11773;52.570;13.052;2022-08-19T10:41:39;2.77;;;2.57;;
23206;SDS011;11773;52.570;13.052;2022-08-19T10:44:11;2.90;;;2.70;;
23206;SDS011;11773;52.570;13.052;2022-08-19T10:46:43;2.80;;;2.60;;
23206;SDS011;11773;52.570;13.052;2022-08-19T10:49:15;2.80;;;2.60;;
23206;SDS011;11773;52.570;13.052;2022-08-19T10:51:45;3.10;;;2.90;;
23206;SDS011;11773;52.570;13.052;2022-08-19T10:54:35;2.90;;;2.70;;
23206;SDS011;11773;52.570;13.052;2022-08-19T10:57:22;2.90;;;2.70;;
23206;SDS011;11773;52.570;13.052;2022-08-19T10:59:55;2.80;;;2.60;;
23206;SDS011;11773;52.570;13.052;2022-08-19T11:02:25;3.77;;;3.47;;
23206;SDS011;11773;52.570;13.052;2022-08-19T11:04:55;3.00;;;2.80;;
23206;SDS011;11773;52.570;13.052;2022-08-19T11:07:26;2.60;;;2.50;;
23206;SDS011;11773;52.570;13.052;2022-08-19T11:09:55;3.00;;;2.80;;
23206;SDS011;11773;52.570;13.052;2022-08-19T11:12:25;3.30;;;3.10;;
23206;SDS011;11773;52.570;13.052;2022-08-19T11:14:55;3.30;;;3.10;;
23206;SDS011;11773;52.570;13.052;2022-08-19T11:17:24;4.23;;;2.97;;
23206;SDS011;11773;52.570;13.052;2022-08-19T11:19:54;2.90;;;2.70;;
23206;SDS011;11773;52.570;13.052;2022-08-19T11:22:23;2.97;;;2.77;;
23206;SDS011;11773;52.570;13.052;2022-08-19T11:24:54;2.70;;;2.50;;
23206;SDS011;11773;52.570;13.052;2022-08-19T11:27:24;3.17;;;2.97;;
23206;SDS011;11773;52.570;13.052;2022-08-19T11:29:54;2.80;;;2.60;;
23206;SDS011;11773;52.570;13.052;2022-08-19T11:32:23;3.00;;;2.80;;
23206;SDS011;11773;52.570;13.052;2022-08-19T11:34:53;2.70;;;2.50;;
23206;SDS011;11773;52.570;13.052;2022-08-19T11:37:22;2.90;;;2.70;;
23206;SDS011;11773;52.570;13.052;2022-08-19T11:39:52;2.70;;;2.50;;
23206;SDS011;11773;52.570;13.052;2022-08-19T11:42:21;2.50;;;2.30;;
23206;SDS011;11773;52.570;13.052;2022-08-19T11:45:09;2.97;;;2.77;;
23206;SDS011;11773;52.570;13.052;2022-08-19T11:47:39;2.50;;;2.40;;
23206;SDS011;11773;52.570;13.052;2022-08-19T11:50:09;2.33;;;2.23;;
23206;SDS011;11773;52.570;13.052;2022-08-19T11:52:38;2.50;;;2.30;;
23206;SDS011;11773;52.570;13.052;2022-08-19T11:55:08;2.67;;;2.47;;
23206;SDS011;11773;52.570;13.052;2022-08-19T11:57:39;2.40;;;2.30;;
23206;SDS011;11773;52.570;13.052;2022-08-19T12:00:10;2.00;;;1.90;;
23206;SDS011;11773;52.570;13.052;2022-08-19T12:02:41;2.70;;;2.50;;
23206;SDS011;11773;52.570;13.052;2022-08-19T12:05:11;2.20;;;2.10;;
23206;SDS011;11773;52.570;13.052;2022-08-19T12:07:40;2.20;;;2.10;;
23206;SDS011;11773;52.570;13.052;2022-08-19T12:10:10;2.10;;;2.00;;
23206;SDS011;11773;52.570;13.052;2022-08-19T12:12:41;2.17;;;2.07;;
23206;SDS011;11773;52.570;13.052;2022-08-19T12:15:14;2.03;;;1.93;;
23206;SDS011;11773;52.570;13.052;2022-08-19T12:17:44;2.37;;;2.20;;
23206;SDS011;11773;52.570;13.052;2022-08-19T12:20:13;2.40;;;2.30;;
23206;SDS011;11773;52.570;13.052;2022-08-19T12:22:44;2.43;;;2.33;;
23206;SDS011;11773;52.570;13.052;2022-08-19T12:25:15;2.50;;;2.40;;
23206;SDS011;11773;52.570;13.052;2022-08-19T12:27:46;2.60;;;2.50;;
23206;SDS011;11773;52.570;13.052;2022-08-19T12:30:18;2.30;;;2.20;;
23206;SDS011;11773;52.570;13.052;2022-08-19T12:32:48;2.03;;;1.93;;
23206;SDS011;11773;52.570;13.052;2022-08-19T12:35:18;2.03;;;1.93;;
23206;SDS011;11773;52.570;13.052;2022-08-19T12:37:48;2.27;;;2.17;;
23206;SDS011;11773;52.570;13.052;2022-08-19T12:40:19;3.00;;;2.80;;
23206;SDS011;11773;52.570;13.052;2022-08-19T12:42:51;3.23;;;3.03;;
23206;SDS011;11773;52.570;13.052;2022-08-19T12:45:22;2.40;;;2.30;;
23206;SDS011;11773;52.570;13.052;2022-08-19T12:47:52;2.53;;;2.40;;
23206;SDS011;11773;52.570;13.052;2022-08-19T12:50:22;2.53;;;2.33;;
23206;SDS011;11773;52.570;13.052;2022-08-19T12:52:51;2.50;;;2.40;;
23206;SDS011;11773;52.570;13.052;2022-08-19T12:55:21;2.00;;;1.90;;
23206;SDS011;11773;52.570;13.052;2022-08-19T12:57:52;2.10;;;2.00;;
23206;SDS011;11773;52.570;13.052;2022-08-19T13:00:22;2.30;;;2.20;;
23206;SDS011;11773;52.570;13.052;2022-08-19T13:02:51;2.33;;;2.23;;
23206;SDS011;11773;52.570;13.052;2022-08-19T13:05:25;2.77;;;2.57;;
23206;SDS011;11773;52.570;13.052;2022-08-19T13:07:56;2.10;;;2.00;;
23206;SDS011;11773;52.570;13.052;2022-08-19T13:10:28;2.17;;;2.07;;
23206;SDS011;11773;52.570;13.052;2022-08-19T13:13:06;2.20;;;2.10;;
23206;SDS011;11773;52.570;13.052;2022-08-19T13:15:39;2.00;;;1.80;;
23206;SDS011;11773;52.570;13.052;2022-08-19T13:18:12;2.30;;;2.20;;
23206;SDS011;11773;52.570;13.052;2022-08-19T13:20:41;2.10;;;2.00;;
23206;SDS011;11773;52.570;13.052;2022-08-19T13:23:13;1.90;;;1.80;;
23206;SDS011;11773;52.570;13.052;2022-08-19T13:25:42;2.60;;;2.40;;
23206;SDS011;11773;52.570;13.052;2022-08-19T13:28:14;2.30;;;2.20;;
23206;SDS011;11773;52.570;13.052;2022-08-19T13:30:46;2.33;;;2.23;;
23206;SDS011;11773;52.570;13.052;2022-08-19T13:33:34;2.10;;;2.00;;
23206;SDS011;11773;52.570;13.052;2022-08-19T13:36:03;2.20;;;2.10;;
23206;SDS011;11773;52.570;13.052;2022-08-19T13:38:34;1.83;;;1.73;;
23206;SDS011;11773;52.570;13.052;2022-08-19T13:41:05;2.40;;;2.30;;
23206;SDS011;11773;52.570;13.052;2022-08-19T13:43:36;1.73;;;1.63;;
23206;SDS011;11773;52.570;13.052;2022-08-19T13:46:08;1.80;;;1.70;;
23206;SDS011;11773;52.570;13.052;2022-08-19T13:48:40;1.70;;;1.60;;
23206;SDS011;11773;52.570;13.052;2022-08-19T13:51:10;1.70;;;1.60;;
23206;SDS011;11773;52.570;13.052;2022-08-19T13:53:40;1.97;;;1.87;;
23206;SDS011;11773;52.570;13.052;2022-08-19T13:56:13;1.93;;;1.83;;
23206;SDS011;11773;52.570;13.052;2022-08-19T13:58:48;2.27;;;2.10;;
23206;SDS011;11773;52.570;13.052;2022-08-19T14:01:21;2.10;;;2.00;;
23206;SDS011;11773;52.570;13.052;2022-08-19T14:03:53;2.07;;;1.97;;
23206;SDS011;11773;52.570;13.052;2022-08-19T14:06:23;2.10;;;2.00;;
23206;SDS011;11773;52.570;13.052;2022-08-19T14:08:52;2.50;;;2.30;;
23206;SDS011;11773;52.570;13.052;2022-08-19T14:11:22;2.00;;;1.90;;
23206;SDS011;11773;52.570;13.052;2022-08-19T14:13:51;2.20;;;2.10;;
23206;SDS011;11773;52.570;13.052;2022-08-19T14:16:21;1.90;;;1.80;;
23206;SDS011;11773;52.570;13.052;2022-08-19T14:18:51;2.53;;;2.43;;
23206;SDS011;11773;52.570;13.052;2022-08-19T14:21:21;2.90;;;2.70;;
23206;SDS011;11773;52.570;13.052;2022-08-19T14:23:52;2.70;;;2.50;;
23206;SDS011;11773;52.570;13.052;2022-08-19T14:26:22;3.10;;;2.90;;
23206;SDS011;11773;52.570;13.052;2022-08-19T14:28:53;2.40;;;2.27;;
23206;SDS011;11773;52.570;13.052;2022-08-19T14:31:24;2.63;;;2.43;;
23206;SDS011;11773;52.570;13.052;2022-08-19T14:33:55;2.87;;;2.67;;
23206;SDS011;11773;52.570;13.052;2022-08-19T14:36:24;2.50;;;2.30;;
23206;SDS011;11773;52.570;13.052;2022-08-19T14:38:54;2.80;;;2.60;;
23206;SDS011;11773;52.570;13.052;2022-08-19T14:41:24;2.80;;;2.60;;
23206;SDS011;11773;52.570;13.052;2022-08-19T14:43:54;2.67;;;2.47;;
23206;SDS011;11773;52.570;13.052;2022-08-19T14:46:25;3.40;;;3.20;;
23206;SDS011;11773;52.570;13.052;2022-08-19T14:48:56;3.33;;;3.13;;
23206;SDS011;11773;52.570;13.052;2022-08-19T14:51:26;3.27;;;3.07;;
23206;SDS011;11773;52.570;13.052;2022-08-19T14:53:56;3.23;;;3.03;;
23206;SDS011;11773;52.570;13.052;2022-08-19T14:56:26;3.13;;;2.93;;
23206;SDS011;11773;52.570;13.052;2022-08-19T14:58:57;2.80;;;2.60;;
23206;SDS011;11773;52.570;13.052;2022-08-19T15:01:28;2.93;;;2.73;;
23206;SDS011;11773;52.570;13.052;2022-08-19T15:03:58;2.80;;;2.60;;
23206;SDS011;11773;52.570;13.052;2022-08-19T15:06:27;2.50;;;2.30;;
23206;SDS011;11773;52.570;13.052;2022-08-19T15:08:58;2.43;;;2.23;;